sensor_id;sensor_type;location;lat;lon;timestamp;P1;durP1;ratioP1;P2;durP2;ratioP2
18526;SDS011;9393;42.158;24.748;2023-08-17T00:02:24;6.78;;;3.78;;
18526;SDS011;9393;42.158;24.748;2023-08-17T00:05:28;5.50;;;3.40;;
18526;SDS011;9393;42.158;24.748;2023-08-17T00:08:34;10.32;;;3.42;;
18526;SDS011;9393;42.158;24.748;2023-08-17T00:11:41;9.43;;;3.50;;
18526;SDS011;9393;42.158;24.748;2023-08-17T00:14:55;7.38;;;3.70;;
18526;SDS011;9393;42.158;24.748;2023-08-17T00:17:59;7.38;;;3.50;;
18526;SDS011;9393;42.158;24.748;2023-08-17T00:21:03;7.30;;;3.65;;
18526;SDS011;9393;42.158;24.748;2023-08-17T00:24:07;13.57;;;4.82;;
18526;SDS011;9393;42.158;24.748;2023-08-17T00:27:11;6.75;;;3.88;;
18526;SDS011;9393;42.158;24.748;2023-08-17T00:30:18;10.10;;;4.50;;
18526;SDS011;9393;42.158;24.748;2023-08-17T00:33:35;7.50;;;4.03;;
18526;SDS011;9393;42.158;24.748;2023-08-17T00:36:42;9.65;;;4.15;;
18526;SDS011;9393;42.158;24.748;2023-08-17T00:40:02;7.20;;;3.70;;
18526;SDS011;9393;42.158;24.748;2023-08-17T00:43:08;12.32;;;4.15;;
18526;SDS011;9393;42.158;24.748;2023-08-17T00:46:13;9.73;;;4.10;;
18526;SDS011;9393;42.158;24.748;2023-08-17T00:49:17;8.27;;;3.80;;
18526;SDS011;9393;42.158;24.748;2023-08-17T00:52:22;11.65;;;4.50;;
18526;SDS011;9393;42.158;24.748;2023-08-17T00:55:26;6.72;;;3.90;;
18526;SDS011;9393;42.158;24.748;2023-08-17T00:58:31;7.18;;;4.38;;
18526;SDS011;9393;42.158;24.748;2023-08-17T01:01:37;11.93;;;4.43;;
18526;SDS011;9393;42.158;24.748;2023-08-17T01:04:41;9.23;;;4.78;;
18526;SDS011;9393;42.158;24.748;2023-08-17T01:07:45;9.07;;;4.10;;
18526;SDS011;9393;42.158;24.748;2023-08-17T01:10:55;7.63;;;4.22;;
18526;SDS011;9393;42.158;24.748;2023-08-17T01:14:04;9.45;;;4.40;;
18526;SDS011;9393;42.158;24.748;2023-08-17T01:17:17;9.20;;;4.90;;
18526;SDS011;9393;42.158;24.748;2023-08-17T01:20:26;9.30;;;4.80;;
18526;SDS011;9393;42.158;24.748;2023-08-17T01:23:31;12.23;;;4.78;;
18526;SDS011;9393;42.158;24.748;2023-08-17T01:26:35;16.83;;;4.88;;
18526;SDS011;9393;42.158;24.748;2023-08-17T01:29:41;11.57;;;5.00;;
18526;SDS011;9393;42.158;24.748;2023-08-17T01:32:56;9.95;;;4.55;;
18526;SDS011;9393;42.158;24.748;2023-08-17T01:36:07;11.73;;;4.82;;
18526;SDS011;9393;42.158;24.748;2023-08-17T01:39:19;12.23;;;4.40;;
18526;SDS011;9393;42.158;24.748;2023-08-17T01:42:28;11.82;;;4.82;;
18526;SDS011;9393;42.158;24.748;2023-08-17T01:45:38;8.07;;;4.80;;
18526;SDS011;9393;42.158;24.748;2023-08-17T01:48:42;9.10;;;4.60;;
18526;SDS011;9393;42.158;24.748;2023-08-17T01:51:47;8.30;;;4.38;;
18526;SDS011;9393;42.158;24.748;2023-08-17T01:54:53;5.70;;;4.35;;
18526;SDS011;9393;42.158;24.748;2023-08-17T01:57:57;9.55;;;5.03;;
18526;SDS011;9393;42.158;24.748;2023-08-17T02:01:01;9.65;;;5.25;;
18526;SDS011;9393;42.158;24.748;2023-08-17T02:04:06;11.82;;;5.25;;
18526;SDS011;9393;42.158;24.748;2023-08-17T02:07:10;15.43;;;5.25;;
18526;SDS011;9393;42.158;24.748;2023-08-17T02:10:19;10.25;;;5.05;;
18526;SDS011;9393;42.158;24.748;2023-08-17T02:13:25;8.63;;;4.97;;
18526;SDS011;9393;42.158;24.748;2023-08-17T02:16:36;7.53;;;5.00;;
18526;SDS011;9393;42.158;24.748;2023-08-17T02:19:40;10.70;;;4.90;;
18526;SDS011;9393;42.158;24.748;2023-08-17T02:22:45;11.63;;;4.90;;
18526;SDS011;9393;42.158;24.748;2023-08-17T02:25:52;9.95;;;5.18;;
18526;SDS011;9393;42.158;24.748;2023-08-17T02:28:59;12.52;;;4.78;;
18526;SDS011;9393;42.158;24.748;2023-08-17T02:32:04;10.32;;;5.22;;
18526;SDS011;9393;42.158;24.748;2023-08-17T02:35:08;10.98;;;5.38;;
18526;SDS011;9393;42.158;24.748;2023-08-17T02:38:13;11.93;;;5.25;;
18526;SDS011;9393;42.158;24.748;2023-08-17T02:41:19;11.77;;;5.25;;
18526;SDS011;9393;42.158;24.748;2023-08-17T02:44:24;11.48;;;5.55;;
18526;SDS011;9393;42.158;24.748;2023-08-17T02:47:29;12.10;;;5.55;;
18526;SDS011;9393;42.158;24.748;2023-08-17T02:50:33;13.43;;;5.47;;
18526;SDS011;9393;42.158;24.748;2023-08-17T02:53:37;10.10;;;5.45;;
18526;SDS011;9393;42.158;24.748;2023-08-17T02:56:46;10.50;;;5.07;;
18526;SDS011;9393;42.158;24.748;2023-08-17T02:59:50;8.30;;;5.28;;
18526;SDS011;9393;42.158;24.748;2023-08-17T03:02:54;8.20;;;5.28;;
18526;SDS011;9393;42.158;24.748;2023-08-17T03:06:01;9.15;;;4.88;;
18526;SDS011;9393;42.158;24.748;2023-08-17T03:09:06;9.88;;;5.00;;
18526;SDS011;9393;42.158;24.748;2023-08-17T03:12:12;10.95;;;5.28;;
18526;SDS011;9393;42.158;24.748;2023-08-17T03:15:16;8.95;;;4.93;;
18526;SDS011;9393;42.158;24.748;2023-08-17T03:18:20;9.60;;;4.95;;
18526;SDS011;9393;42.158;24.748;2023-08-17T03:21:24;9.00;;;4.45;;
18526;SDS011;9393;42.158;24.748;2023-08-17T03:24:28;10.43;;;4.80;;
18526;SDS011;9393;42.158;24.748;2023-08-17T03:27:34;7.80;;;4.30;;
18526;SDS011;9393;42.158;24.748;2023-08-17T03:30:39;6.22;;;4.15;;
18526;SDS011;9393;42.158;24.748;2023-08-17T03:33:45;6.47;;;4.10;;
18526;SDS011;9393;42.158;24.748;2023-08-17T03:36:49;5.20;;;4.10;;
18526;SDS011;9393;42.158;24.748;2023-08-17T03:39:56;6.57;;;4.00;;
18526;SDS011;9393;42.158;24.748;2023-08-17T03:43:09;7.97;;;4.70;;
18526;SDS011;9393;42.158;24.748;2023-08-17T03:46:14;8.77;;;4.30;;
18526;SDS011;9393;42.158;24.748;2023-08-17T03:49:18;9.65;;;4.38;;
18526;SDS011;9393;42.158;24.748;2023-08-17T03:52:25;7.80;;;4.40;;
18526;SDS011;9393;42.158;24.748;2023-08-17T03:55:29;10.60;;;5.05;;
18526;SDS011;9393;42.158;24.748;2023-08-17T03:58:35;10.32;;;5.43;;
18526;SDS011;9393;42.158;24.748;2023-08-17T04:01:42;11.85;;;5.47;;
18526;SDS011;9393;42.158;24.748;2023-08-17T04:04:48;20.38;;;6.28;;
18526;SDS011;9393;42.158;24.748;2023-08-17T04:07:58;12.50;;;5.43;;
18526;SDS011;9393;42.158;24.748;2023-08-17T04:11:04;9.55;;;5.82;;
18526;SDS011;9393;42.158;24.748;2023-08-17T04:14:11;18.10;;;6.03;;
18526;SDS011;9393;42.158;24.748;2023-08-17T04:17:24;19.70;;;6.13;;
18526;SDS011;9393;42.158;24.748;2023-08-17T04:20:29;15.25;;;6.43;;
18526;SDS011;9393;42.158;24.748;2023-08-17T04:23:33;14.57;;;6.13;;
18526;SDS011;9393;42.158;24.748;2023-08-17T04:26:38;13.35;;;6.25;;
18526;SDS011;9393;42.158;24.748;2023-08-17T04:29:44;18.05;;;6.20;;
18526;SDS011;9393;42.158;24.748;2023-08-17T04:32:49;27.98;;;7.28;;
18526;SDS011;9393;42.158;24.748;2023-08-17T04:35:57;13.73;;;6.43;;
18526;SDS011;9393;42.158;24.748;2023-08-17T04:39:03;16.35;;;6.90;;
18526;SDS011;9393;42.158;24.748;2023-08-17T04:42:07;14.15;;;6.95;;
18526;SDS011;9393;42.158;24.748;2023-08-17T04:45:13;9.98;;;6.05;;
18526;SDS011;9393;42.158;24.748;2023-08-17T04:48:19;10.45;;;5.70;;
18526;SDS011;9393;42.158;24.748;2023-08-17T04:51:24;12.95;;;6.30;;
18526;SDS011;9393;42.158;24.748;2023-08-17T04:54:28;15.25;;;5.85;;
18526;SDS011;9393;42.158;24.748;2023-08-17T04:57:37;12.90;;;7.25;;
18526;SDS011;9393;42.158;24.748;2023-08-17T05:00:44;11.00;;;6.10;;
18526;SDS011;9393;42.158;24.748;2023-08-17T05:03:53;15.48;;;5.90;;
18526;SDS011;9393;42.158;24.748;2023-08-17T05:06:59;9.88;;;5.72;;
18526;SDS011;9393;42.158;24.748;2023-08-17T05:10:07;7.38;;;5.35;;
18526;SDS011;9393;42.158;24.748;2023-08-17T05:13:14;13.15;;;5.80;;
18526;SDS011;9393;42.158;24.748;2023-08-17T05:16:20;17.00;;;6.85;;
18526;SDS011;9393;42.158;24.748;2023-08-17T05:19:24;18.05;;;6.00;;
18526;SDS011;9393;42.158;24.748;2023-08-17T05:22:30;18.67;;;6.05;;
18526;SDS011;9393;42.158;24.748;2023-08-17T05:25:34;21.88;;;6.15;;
18526;SDS011;9393;42.158;24.748;2023-08-17T05:28:38;15.32;;;5.78;;
18526;SDS011;9393;42.158;24.748;2023-08-17T05:31:54;12.15;;;5.65;;
18526;SDS011;9393;42.158;24.748;2023-08-17T05:35:01;15.93;;;5.60;;
18526;SDS011;9393;42.158;24.748;2023-08-17T05:38:08;13.50;;;5.85;;
18526;SDS011;9393;42.158;24.748;2023-08-17T05:41:23;12.43;;;5.28;;
18526;SDS011;9393;42.158;24.748;2023-08-17T05:44:30;15.75;;;5.53;;
18526;SDS011;9393;42.158;24.748;2023-08-17T05:47:35;13.52;;;5.78;;
18526;SDS011;9393;42.158;24.748;2023-08-17T05:50:46;16.85;;;5.47;;
18526;SDS011;9393;42.158;24.748;2023-08-17T05:53:53;15.45;;;5.55;;
18526;SDS011;9393;42.158;24.748;2023-08-17T05:56:58;18.05;;;6.07;;
18526;SDS011;9393;42.158;24.748;2023-08-17T06:00:02;9.27;;;5.03;;
18526;SDS011;9393;42.158;24.748;2023-08-17T06:03:14;14.40;;;4.82;;
18526;SDS011;9393;42.158;24.748;2023-08-17T06:06:19;14.40;;;5.07;;
18526;SDS011;9393;42.158;24.748;2023-08-17T06:09:25;15.07;;;6.03;;
18526;SDS011;9393;42.158;24.748;2023-08-17T06:12:29;22.40;;;6.40;;
18526;SDS011;9393;42.158;24.748;2023-08-17T06:15:36;21.05;;;6.38;;
18526;SDS011;9393;42.158;24.748;2023-08-17T06:18:41;15.23;;;5.30;;
18526;SDS011;9393;42.158;24.748;2023-08-17T06:21:45;19.33;;;5.57;;
18526;SDS011;9393;42.158;24.748;2023-08-17T06:24:49;10.07;;;4.28;;
18526;SDS011;9393;42.158;24.748;2023-08-17T06:27:54;9.43;;;4.32;;
18526;SDS011;9393;42.158;24.748;2023-08-17T06:30:58;7.78;;;5.57;;
18526;SDS011;9393;42.158;24.748;2023-08-17T06:34:03;11.82;;;4.65;;
18526;SDS011;9393;42.158;24.748;2023-08-17T06:37:09;11.48;;;4.65;;
18526;SDS011;9393;42.158;24.748;2023-08-17T06:40:20;9.77;;;4.65;;
18526;SDS011;9393;42.158;24.748;2023-08-17T06:43:24;12.88;;;4.72;;
18526;SDS011;9393;42.158;24.748;2023-08-17T06:46:31;9.07;;;4.47;;
18526;SDS011;9393;42.158;24.748;2023-08-17T06:49:36;18.25;;;5.80;;
18526;SDS011;9393;42.158;24.748;2023-08-17T06:52:40;15.50;;;4.80;;
18526;SDS011;9393;42.158;24.748;2023-08-17T06:55:45;13.00;;;5.25;;
18526;SDS011;9393;42.158;24.748;2023-08-17T06:58:49;12.65;;;4.55;;
18526;SDS011;9393;42.158;24.748;2023-08-17T07:01:55;17.90;;;4.68;;
18526;SDS011;9393;42.158;24.748;2023-08-17T07:05:05;9.68;;;4.10;;
18526;SDS011;9393;42.158;24.748;2023-08-17T07:08:11;8.75;;;3.90;;
18526;SDS011;9393;42.158;24.748;2023-08-17T07:11:15;9.88;;;3.90;;
18526;SDS011;9393;42.158;24.748;2023-08-17T07:14:19;8.25;;;3.83;;
18526;SDS011;9393;42.158;24.748;2023-08-17T07:17:24;7.03;;;3.47;;
18526;SDS011;9393;42.158;24.748;2023-08-17T07:20:30;7.10;;;4.10;;
18526;SDS011;9393;42.158;24.748;2023-08-17T07:23:34;7.97;;;4.15;;
18526;SDS011;9393;42.158;24.748;2023-08-17T07:26:38;8.73;;;3.90;;
18526;SDS011;9393;42.158;24.748;2023-08-17T07:29:43;8.45;;;3.40;;
18526;SDS011;9393;42.158;24.748;2023-08-17T07:32:47;15.27;;;7.80;;
18526;SDS011;9393;42.158;24.748;2023-08-17T07:35:54;7.40;;;3.80;;
18526;SDS011;9393;42.158;24.748;2023-08-17T07:39:00;5.40;;;3.40;;
18526;SDS011;9393;42.158;24.748;2023-08-17T07:42:06;10.32;;;3.90;;
18526;SDS011;9393;42.158;24.748;2023-08-17T07:45:11;15.95;;;6.53;;
18526;SDS011;9393;42.158;24.748;2023-08-17T07:48:15;8.93;;;4.40;;
18526;SDS011;9393;42.158;24.748;2023-08-17T07:51:21;3.92;;;2.83;;
18526;SDS011;9393;42.158;24.748;2023-08-17T07:54:25;7.80;;;3.50;;
18526;SDS011;9393;42.158;24.748;2023-08-17T07:57:29;9.23;;;3.53;;
18526;SDS011;9393;42.158;24.748;2023-08-17T08:00:34;11.30;;;3.78;;
18526;SDS011;9393;42.158;24.748;2023-08-17T08:03:44;7.32;;;3.70;;
18526;SDS011;9393;42.158;24.748;2023-08-17T08:06:56;6.32;;;3.55;;
18526;SDS011;9393;42.158;24.748;2023-08-17T08:10:01;10.77;;;3.40;;
18526;SDS011;9393;42.158;24.748;2023-08-17T08:13:05;8.75;;;3.80;;
18526;SDS011;9393;42.158;24.748;2023-08-17T08:16:09;12.88;;;3.92;;
18526;SDS011;9393;42.158;24.748;2023-08-17T08:19:16;9.45;;;3.83;;
18526;SDS011;9393;42.158;24.748;2023-08-17T08:22:22;6.65;;;3.47;;
18526;SDS011;9393;42.158;24.748;2023-08-17T08:25:26;8.98;;;3.20;;
18526;SDS011;9393;42.158;24.748;2023-08-17T08:28:30;7.40;;;2.83;;
18526;SDS011;9393;42.158;24.748;2023-08-17T08:31:36;9.18;;;3.55;;
18526;SDS011;9393;42.158;24.748;2023-08-17T08:34:42;5.40;;;3.00;;
18526;SDS011;9393;42.158;24.748;2023-08-17T08:37:51;7.32;;;3.10;;
18526;SDS011;9393;42.158;24.748;2023-08-17T08:40:55;7.25;;;3.50;;
18526;SDS011;9393;42.158;24.748;2023-08-17T08:44:01;10.48;;;3.03;;
18526;SDS011;9393;42.158;24.748;2023-08-17T08:47:05;6.18;;;2.70;;
18526;SDS011;9393;42.158;24.748;2023-08-17T08:50:10;6.18;;;2.95;;
18526;SDS011;9393;42.158;24.748;2023-08-17T08:53:24;8.35;;;2.78;;
18526;SDS011;9393;42.158;24.748;2023-08-17T08:56:37;6.72;;;3.03;;
18526;SDS011;9393;42.158;24.748;2023-08-17T08:59:50;8.13;;;2.60;;
18526;SDS011;9393;42.158;24.748;2023-08-17T09:03:02;6.57;;;2.80;;
18526;SDS011;9393;42.158;24.748;2023-08-17T09:06:10;7.95;;;2.88;;
18526;SDS011;9393;42.158;24.748;2023-08-17T09:09:18;6.93;;;2.55;;
18526;SDS011;9393;42.158;24.748;2023-08-17T09:12:23;7.50;;;3.10;;
18526;SDS011;9393;42.158;24.748;2023-08-17T09:15:42;8.40;;;3.08;;
18526;SDS011;9393;42.158;24.748;2023-08-17T09:18:49;7.40;;;2.80;;
18526;SDS011;9393;42.158;24.748;2023-08-17T09:21:57;7.90;;;3.20;;
18526;SDS011;9393;42.158;24.748;2023-08-17T09:25:21;7.20;;;2.85;;
18526;SDS011;9393;42.158;24.748;2023-08-17T09:28:27;6.95;;;4.00;;
18526;SDS011;9393;42.158;24.748;2023-08-17T09:31:34;8.43;;;3.88;;
18526;SDS011;9393;42.158;24.748;2023-08-17T09:34:40;13.30;;;3.80;;
18526;SDS011;9393;42.158;24.748;2023-08-17T09:37:50;7.72;;;3.17;;
18526;SDS011;9393;42.158;24.748;2023-08-17T09:40:55;6.32;;;3.45;;
18526;SDS011;9393;42.158;24.748;2023-08-17T09:44:01;11.90;;;3.72;;
18526;SDS011;9393;42.158;24.748;2023-08-17T09:47:06;6.10;;;3.10;;
18526;SDS011;9393;42.158;24.748;2023-08-17T09:50:10;5.57;;;2.92;;
18526;SDS011;9393;42.158;24.748;2023-08-17T09:53:20;8.10;;;3.60;;
18526;SDS011;9393;42.158;24.748;2023-08-17T09:56:26;8.38;;;2.80;;
18526;SDS011;9393;42.158;24.748;2023-08-17T09:59:39;7.95;;;2.80;;
18526;SDS011;9393;42.158;24.748;2023-08-17T10:02:50;3.63;;;2.67;;
18526;SDS011;9393;42.158;24.748;2023-08-17T10:05:58;6.88;;;2.80;;
18526;SDS011;9393;42.158;24.748;2023-08-17T10:09:06;5.90;;;2.58;;
18526;SDS011;9393;42.158;24.748;2023-08-17T10:12:17;6.53;;;2.95;;
18526;SDS011;9393;42.158;24.748;2023-08-17T10:15:23;7.63;;;2.78;;
18526;SDS011;9393;42.158;24.748;2023-08-17T10:18:35;8.43;;;3.13;;
18526;SDS011;9393;42.158;24.748;2023-08-17T10:21:46;6.20;;;2.70;;
18526;SDS011;9393;42.158;24.748;2023-08-17T10:24:53;6.47;;;2.53;;
18526;SDS011;9393;42.158;24.748;2023-08-17T10:28:01;7.47;;;3.08;;
18526;SDS011;9393;42.158;24.748;2023-08-17T10:31:07;5.53;;;2.85;;
18526;SDS011;9393;42.158;24.748;2023-08-17T10:34:21;6.05;;;3.00;;
18526;SDS011;9393;42.158;24.748;2023-08-17T10:37:30;8.35;;;3.30;;
18526;SDS011;9393;42.158;24.748;2023-08-17T10:40:38;7.03;;;2.70;;
18526;SDS011;9393;42.158;24.748;2023-08-17T10:43:59;3.67;;;2.35;;
18526;SDS011;9393;42.158;24.748;2023-08-17T10:50:25;4.68;;;2.50;;
18526;SDS011;9393;42.158;24.748;2023-08-17T10:53:36;5.88;;;3.00;;
18526;SDS011;9393;42.158;24.748;2023-08-17T10:56:47;4.03;;;2.45;;
18526;SDS011;9393;42.158;24.748;2023-08-17T11:03:23;10.95;;;2.90;;
18526;SDS011;9393;42.158;24.748;2023-08-17T11:06:30;7.72;;;2.40;;
18526;SDS011;9393;42.158;24.748;2023-08-17T11:09:36;6.20;;;2.70;;
18526;SDS011;9393;42.158;24.748;2023-08-17T11:12:46;6.95;;;2.58;;
18526;SDS011;9393;42.158;24.748;2023-08-17T11:16:01;7.28;;;2.55;;
18526;SDS011;9393;42.158;24.748;2023-08-17T11:19:12;5.05;;;2.53;;
18526;SDS011;9393;42.158;24.748;2023-08-17T11:22:17;5.90;;;2.38;;
18526;SDS011;9393;42.158;24.748;2023-08-17T11:25:31;4.63;;;2.10;;
18526;SDS011;9393;42.158;24.748;2023-08-17T11:28:36;5.53;;;3.00;;
18526;SDS011;9393;42.158;24.748;2023-08-17T11:31:52;6.22;;;2.78;;
18526;SDS011;9393;42.158;24.748;2023-08-17T11:34:59;5.97;;;2.45;;
18526;SDS011;9393;42.158;24.748;2023-08-17T11:38:04;3.85;;;2.60;;
18526;SDS011;9393;42.158;24.748;2023-08-17T11:41:14;3.22;;;2.33;;
18526;SDS011;9393;42.158;24.748;2023-08-17T11:44:20;4.10;;;2.40;;
18526;SDS011;9393;42.158;24.748;2023-08-17T11:47:29;6.25;;;2.45;;
18526;SDS011;9393;42.158;24.748;2023-08-17T11:50:40;5.45;;;2.95;;
18526;SDS011;9393;42.158;24.748;2023-08-17T11:53:45;4.78;;;2.40;;
18526;SDS011;9393;42.158;24.748;2023-08-17T11:56:51;4.85;;;2.88;;
18526;SDS011;9393;42.158;24.748;2023-08-17T11:59:59;6.32;;;2.95;;
18526;SDS011;9393;42.158;24.748;2023-08-17T12:03:07;7.45;;;2.60;;
18526;SDS011;9393;42.158;24.748;2023-08-17T12:06:17;8.02;;;3.05;;
18526;SDS011;9393;42.158;24.748;2023-08-17T12:09:27;8.07;;;2.70;;
18526;SDS011;9393;42.158;24.748;2023-08-17T12:12:36;8.43;;;2.65;;
18526;SDS011;9393;42.158;24.748;2023-08-17T12:15:44;5.85;;;2.72;;
18526;SDS011;9393;42.158;24.748;2023-08-17T12:18:53;7.00;;;2.55;;
18526;SDS011;9393;42.158;24.748;2023-08-17T12:22:01;4.60;;;2.67;;
18526;SDS011;9393;42.158;24.748;2023-08-17T12:25:09;7.60;;;2.40;;
18526;SDS011;9393;42.158;24.748;2023-08-17T12:28:17;5.93;;;2.38;;
18526;SDS011;9393;42.158;24.748;2023-08-17T12:31:22;3.92;;;2.03;;
18526;SDS011;9393;42.158;24.748;2023-08-17T12:34:29;7.88;;;2.20;;
18526;SDS011;9393;42.158;24.748;2023-08-17T12:37:37;7.03;;;2.67;;
18526;SDS011;9393;42.158;24.748;2023-08-17T12:40:41;7.38;;;2.67;;
18526;SDS011;9393;42.158;24.748;2023-08-17T12:43:47;5.53;;;2.22;;
18526;SDS011;9393;42.158;24.748;2023-08-17T12:46:58;3.17;;;2.22;;
18526;SDS011;9393;42.158;24.748;2023-08-17T12:50:04;7.80;;;2.90;;
18526;SDS011;9393;42.158;24.748;2023-08-17T12:53:12;3.42;;;2.65;;
18526;SDS011;9393;42.158;24.748;2023-08-17T12:56:18;5.30;;;2.72;;
18526;SDS011;9393;42.158;24.748;2023-08-17T12:59:27;7.68;;;2.90;;
18526;SDS011;9393;42.158;24.748;2023-08-17T13:02:31;7.68;;;3.55;;
18526;SDS011;9393;42.158;24.748;2023-08-17T13:05:37;6.88;;;2.30;;
18526;SDS011;9393;42.158;24.748;2023-08-17T13:08:42;6.68;;;2.22;;
18526;SDS011;9393;42.158;24.748;2023-08-17T13:11:46;6.70;;;2.40;;
18526;SDS011;9393;42.158;24.748;2023-08-17T13:14:51;5.50;;;2.30;;
18526;SDS011;9393;42.158;24.748;2023-08-17T13:18:03;3.55;;;2.40;;
18526;SDS011;9393;42.158;24.748;2023-08-17T13:21:17;5.88;;;2.22;;
18526;SDS011;9393;42.158;24.748;2023-08-17T13:24:22;6.70;;;2.72;;
18526;SDS011;9393;42.158;24.748;2023-08-17T13:27:34;5.35;;;2.83;;
18526;SDS011;9393;42.158;24.748;2023-08-17T13:30:43;9.00;;;3.08;;
18526;SDS011;9393;42.158;24.748;2023-08-17T13:33:48;4.97;;;2.55;;
18526;SDS011;9393;42.158;24.748;2023-08-17T13:36:58;4.55;;;2.50;;
18526;SDS011;9393;42.158;24.748;2023-08-17T13:40:13;5.70;;;2.65;;
18526;SDS011;9393;42.158;24.748;2023-08-17T13:43:21;7.65;;;2.67;;
18526;SDS011;9393;42.158;24.748;2023-08-17T13:46:29;6.70;;;3.00;;
18526;SDS011;9393;42.158;24.748;2023-08-17T13:49:35;5.85;;;3.25;;
18526;SDS011;9393;42.158;24.748;2023-08-17T13:52:43;5.60;;;2.60;;
18526;SDS011;9393;42.158;24.748;2023-08-17T13:55:49;4.18;;;2.70;;
18526;SDS011;9393;42.158;24.748;2023-08-17T13:58:53;6.40;;;2.80;;
18526;SDS011;9393;42.158;24.748;2023-08-17T14:02:03;5.60;;;2.65;;
18526;SDS011;9393;42.158;24.748;2023-08-17T14:05:09;5.85;;;2.42;;
18526;SDS011;9393;42.158;24.748;2023-08-17T14:08:24;4.50;;;3.17;;
18526;SDS011;9393;42.158;24.748;2023-08-17T14:11:29;7.47;;;3.10;;
18526;SDS011;9393;42.158;24.748;2023-08-17T14:14:36;7.18;;;2.45;;
18526;SDS011;9393;42.158;24.748;2023-08-17T14:17:41;11.25;;;3.08;;
18526;SDS011;9393;42.158;24.748;2023-08-17T14:20:47;5.40;;;2.60;;
18526;SDS011;9393;42.158;24.748;2023-08-17T14:24:00;5.25;;;2.78;;
18526;SDS011;9393;42.158;24.748;2023-08-17T14:27:07;5.40;;;3.00;;
18526;SDS011;9393;42.158;24.748;2023-08-17T14:30:15;5.75;;;2.80;;
18526;SDS011;9393;42.158;24.748;2023-08-17T14:33:28;10.30;;;2.85;;
18526;SDS011;9393;42.158;24.748;2023-08-17T14:36:34;9.70;;;3.10;;
18526;SDS011;9393;42.158;24.748;2023-08-17T14:39:40;5.50;;;3.00;;
18526;SDS011;9393;42.158;24.748;2023-08-17T14:42:46;3.90;;;2.50;;
18526;SDS011;9393;42.158;24.748;2023-08-17T14:45:58;4.72;;;2.97;;
18526;SDS011;9393;42.158;24.748;2023-08-17T14:49:05;3.22;;;2.88;;
18526;SDS011;9393;42.158;24.748;2023-08-17T14:52:09;4.50;;;2.75;;
18526;SDS011;9393;42.158;24.748;2023-08-17T14:55:15;4.80;;;2.60;;
18526;SDS011;9393;42.158;24.748;2023-08-17T14:58:20;6.60;;;3.20;;
18526;SDS011;9393;42.158;24.748;2023-08-17T15:01:24;5.28;;;3.17;;
18526;SDS011;9393;42.158;24.748;2023-08-17T15:04:29;5.45;;;3.03;;
18526;SDS011;9393;42.158;24.748;2023-08-17T15:07:36;7.57;;;3.22;;
18526;SDS011;9393;42.158;24.748;2023-08-17T15:10:45;5.53;;;2.95;;
18526;SDS011;9393;42.158;24.748;2023-08-17T15:13:50;7.68;;;3.13;;
18526;SDS011;9393;42.158;24.748;2023-08-17T15:16:57;6.90;;;2.97;;
18526;SDS011;9393;42.158;24.748;2023-08-17T15:20:24;8.60;;;2.95;;
18526;SDS011;9393;42.158;24.748;2023-08-17T15:23:33;6.20;;;2.95;;
18526;SDS011;9393;42.158;24.748;2023-08-17T15:26:48;7.57;;;3.10;;
18526;SDS011;9393;42.158;24.748;2023-08-17T15:30:00;11.48;;;3.08;;
18526;SDS011;9393;42.158;24.748;2023-08-17T15:33:09;8.65;;;3.58;;
18526;SDS011;9393;42.158;24.748;2023-08-17T15:36:13;6.00;;;3.30;;
18526;SDS011;9393;42.158;24.748;2023-08-17T15:39:26;7.28;;;3.50;;
18526;SDS011;9393;42.158;24.748;2023-08-17T15:42:39;7.40;;;3.22;;
18526;SDS011;9393;42.158;24.748;2023-08-17T15:45:45;7.57;;;3.58;;
18526;SDS011;9393;42.158;24.748;2023-08-17T15:48:55;8.50;;;3.75;;
18526;SDS011;9393;42.158;24.748;2023-08-17T15:52:11;6.00;;;4.05;;
18526;SDS011;9393;42.158;24.748;2023-08-17T15:55:17;7.13;;;3.38;;
18526;SDS011;9393;42.158;24.748;2023-08-17T15:58:23;7.63;;;3.70;;
18526;SDS011;9393;42.158;24.748;2023-08-17T16:01:27;7.82;;;3.60;;
18526;SDS011;9393;42.158;24.748;2023-08-17T16:04:31;6.85;;;3.42;;
18526;SDS011;9393;42.158;24.748;2023-08-17T16:07:37;8.23;;;4.05;;
18526;SDS011;9393;42.158;24.748;2023-08-17T16:10:51;7.63;;;4.93;;
18526;SDS011;9393;42.158;24.748;2023-08-17T16:13:57;10.80;;;4.38;;
18526;SDS011;9393;42.158;24.748;2023-08-17T16:17:10;6.82;;;3.95;;
18526;SDS011;9393;42.158;24.748;2023-08-17T16:20:14;9.85;;;4.05;;
18526;SDS011;9393;42.158;24.748;2023-08-17T16:23:27;8.85;;;4.22;;
18526;SDS011;9393;42.158;24.748;2023-08-17T16:26:34;7.15;;;4.57;;
18526;SDS011;9393;42.158;24.748;2023-08-17T16:29:39;6.68;;;5.05;;
18526;SDS011;9393;42.158;24.748;2023-08-17T16:32:46;8.02;;;4.70;;
18526;SDS011;9393;42.158;24.748;2023-08-17T16:35:55;8.48;;;4.28;;
18526;SDS011;9393;42.158;24.748;2023-08-17T16:39:02;7.97;;;4.30;;
18526;SDS011;9393;42.158;24.748;2023-08-17T16:42:09;7.38;;;5.13;;
18526;SDS011;9393;42.158;24.748;2023-08-17T16:45:17;10.98;;;5.70;;
18526;SDS011;9393;42.158;24.748;2023-08-17T16:48:23;12.10;;;6.65;;
18526;SDS011;9393;42.158;24.748;2023-08-17T16:51:28;11.18;;;6.60;;
18526;SDS011;9393;42.158;24.748;2023-08-17T16:54:37;13.40;;;6.65;;
18526;SDS011;9393;42.158;24.748;2023-08-17T16:57:41;16.02;;;7.25;;
18526;SDS011;9393;42.158;24.748;2023-08-17T17:00:47;15.15;;;7.65;;
18526;SDS011;9393;42.158;24.748;2023-08-17T17:03:51;14.07;;;7.93;;
18526;SDS011;9393;42.158;24.748;2023-08-17T17:06:55;17.02;;;8.18;;
18526;SDS011;9393;42.158;24.748;2023-08-17T17:10:00;16.38;;;7.97;;
18526;SDS011;9393;42.158;24.748;2023-08-17T17:13:04;13.60;;;8.13;;
18526;SDS011;9393;42.158;24.748;2023-08-17T17:16:10;16.33;;;6.93;;
18526;SDS011;9393;42.158;24.748;2023-08-17T17:19:14;12.27;;;5.68;;
18526;SDS011;9393;42.158;24.748;2023-08-17T17:22:24;12.63;;;5.30;;
18526;SDS011;9393;42.158;24.748;2023-08-17T17:25:30;10.02;;;4.90;;
18526;SDS011;9393;42.158;24.748;2023-08-17T17:28:34;12.10;;;6.00;;
18526;SDS011;9393;42.158;24.748;2023-08-17T17:31:43;16.08;;;5.63;;
18526;SDS011;9393;42.158;24.748;2023-08-17T17:34:47;10.13;;;4.68;;
18526;SDS011;9393;42.158;24.748;2023-08-17T17:37:51;12.00;;;4.32;;
18526;SDS011;9393;42.158;24.748;2023-08-17T17:40:55;6.00;;;3.70;;
18526;SDS011;9393;42.158;24.748;2023-08-17T17:44:03;7.45;;;4.35;;
18526;SDS011;9393;42.158;24.748;2023-08-17T17:47:12;11.10;;;5.53;;
18526;SDS011;9393;42.158;24.748;2023-08-17T17:50:18;15.93;;;7.03;;
18526;SDS011;9393;42.158;24.748;2023-08-17T17:53:22;14.27;;;7.10;;
18526;SDS011;9393;42.158;24.748;2023-08-17T17:56:36;11.30;;;5.88;;
18526;SDS011;9393;42.158;24.748;2023-08-17T17:59:44;6.30;;;4.30;;
18526;SDS011;9393;42.158;24.748;2023-08-17T18:02:52;10.02;;;5.55;;
18526;SDS011;9393;42.158;24.748;2023-08-17T18:05:57;9.82;;;5.30;;
18526;SDS011;9393;42.158;24.748;2023-08-17T18:09:01;12.68;;;4.40;;
18526;SDS011;9393;42.158;24.748;2023-08-17T18:12:07;5.95;;;3.70;;
18526;SDS011;9393;42.158;24.748;2023-08-17T18:15:17;6.78;;;4.00;;
18526;SDS011;9393;42.158;24.748;2023-08-17T18:18:23;6.22;;;3.72;;
18526;SDS011;9393;42.158;24.748;2023-08-17T18:21:29;8.15;;;3.85;;
18526;SDS011;9393;42.158;24.748;2023-08-17T18:24:40;8.93;;;4.10;;
18526;SDS011;9393;42.158;24.748;2023-08-17T18:27:44;8.27;;;4.50;;
18526;SDS011;9393;42.158;24.748;2023-08-17T18:30:49;8.55;;;4.30;;
18526;SDS011;9393;42.158;24.748;2023-08-17T18:33:54;11.48;;;4.60;;
18526;SDS011;9393;42.158;24.748;2023-08-17T18:37:01;8.73;;;4.63;;
18526;SDS011;9393;42.158;24.748;2023-08-17T18:40:08;11.85;;;5.00;;
18526;SDS011;9393;42.158;24.748;2023-08-17T18:43:14;9.20;;;4.68;;
18526;SDS011;9393;42.158;24.748;2023-08-17T18:46:20;8.80;;;4.82;;
18526;SDS011;9393;42.158;24.748;2023-08-17T18:49:28;9.57;;;4.20;;